sensor_id;sensor_type;location;lat;lon;timestamp;pressure;altitude;pressure_sealevel;temperature;humidity
22775;BME280;11554;51.106;3.684;2022-10-31T00:00:00;101991.95999999999;;;10.70;100.0
22775;BME280;11554;51.106;3.684;2022-10-31T00:05:00;101991.39;;;10.50;100.0
22775;BME280;11554;51.106;3.684;2022-10-31T00:10:00;101996.33;;;10.37;100.0
22775;BME280;11554;51.106;3.684;2022-10-31T00:15:00;101985.17;;;10.26;100.0
22775;BME280;11554;51.106;3.684;2022-10-31T00:20:00;101990.77;;;10.13;100.0
22775;BME280;11554;51.106;3.684;2022-10-31T00:25:00;101980.38;;;10.22;100.0
22775;BME280;11554;51.106;3.684;2022-10-31T00:30:00;101989.47;;;10.06;100.0
22775;BME280;11554;51.106;3.684;2022-10-31T00:35:00;101989.08;;;9.96;100.0
22775;BME280;11554;51.106;3.684;2022-10-31T00:40:00;101982.48;;;9.89;100.0
22775;BME280;11554;51.106;3.684;2022-10-31T00:45:00;101982.34;;;9.77;100.0
22775;BME280;11554;51.106;3.684;2022-10-31T00:50:00;101989.4;;;9.70;100.0
22775;BME280;11554;51.106;3.684;2022-10-31T00:55:00;101990.07;;;9.62;100.0
22775;BME280;11554;51.106;3.684;2022-10-31T01:00:00;101998.25;;;9.47;100.0
22775;BME280;11554;51.106;3.684;2022-10-31T01:05:00;101990.44;;;9.45;100.0
22775;BME280;11554;51.106;3.684;2022-10-31T01:10:00;101997.2;;;9.30;100.0
22775;BME280;11554;51.106;3.684;2022-10-31T01:15:00;101994.1;;;9.30;100.0
22775;BME280;11554;51.106;3.684;2022-10-31T01:20:00;101995.18000000001;;;9.22;100.0
22775;BME280;11554;51.106;3.684;2022-10-31T01:25:00;101995.51;;;9.18;100.0
22775;BME280;11554;51.106;3.684;2022-10-31T01:30:00;101993.40999999999;;;9.22;100.0
22775;BME280;11554;51.106;3.684;2022-10-31T01:35:00;101993.75;;;9.15;100.0
22775;BME280;11554;51.106;3.684;2022-10-31T01:40:00;101993.98;;;9.18;100.0
22775;BME280;11554;51.106;3.684;2022-10-31T01:45:00;101984.37;;;9.10;100.0
22775;BME280;11554;51.106;3.684;2022-10-31T01:50:00;101986.14;;;9.03;100.0
22775;BME280;11554;51.106;3.684;2022-10-31T01:55:00;101983.78;;;9.18;100.0
22775;BME280;11554;51.106;3.684;2022-10-31T02:00:02;101985.32;;;9.26;100.0
22775;BME280;11554;51.106;3.684;2022-10-31T02:05:00;101982.53;;;9.17;100.0
22775;BME280;11554;51.106;3.684;2022-10-31T02:10:00;101985.63;;;9.19;100.0
22775;BME280;11554;51.106;3.684;2022-10-31T02:15:00;101984.63;;;9.14;100.0
22775;BME280;11554;51.106;3.684;2022-10-31T02:20:01;101984.55;;;9.28;100.0
22775;BME280;11554;51.106;3.684;2022-10-31T02:25:03;101969.78;;;9.38;100.0
22775;BME280;11554;51.106;3.684;2022-10-31T02:30:03;101970.26;;;9.38;100.0
22775;BME280;11554;51.106;3.684;2022-10-31T02:35:02;101968.31;;;9.40;100.0
22775;BME280;11554;51.106;3.684;2022-10-31T02:40:02;101964.62;;;9.49;100.0
22775;BME280;11554;51.106;3.684;2022-10-31T02:45:00;101962.14;;;9.43;100.0
22775;BME280;11554;51.106;3.684;2022-10-31T02:50:00;101959.5;;;9.52;100.0
22775;BME280;11554;51.106;3.684;2022-10-31T02:55:08;101952.4;;;9.35;100.0
22775;BME280;11554;51.106;3.684;2022-10-31T03:00:00;101955.98;;;9.35;100.0
22775;BME280;11554;51.106;3.684;2022-10-31T03:05:04;101952.87;;;9.36;100.0
22775;BME280;11554;51.106;3.684;2022-10-31T03:10:03;101943.0;;;9.28;100.0
22775;BME280;11554;51.106;3.684;2022-10-31T03:15:01;101946.42;;;9.28;100.0
22775;BME280;11554;51.106;3.684;2022-10-31T03:20:00;101940.34;;;9.33;100.0
22775;BME280;11554;51.106;3.684;2022-10-31T03:25:00;101932.06;;;9.38;100.0
22775;BME280;11554;51.106;3.684;2022-10-31T03:30:02;101935.94;;;9.33;100.0
22775;BME280;11554;51.106;3.684;2022-10-31T03:35:00;101938.23999999999;;;9.43;100.0
22775;BME280;11554;51.106;3.684;2022-10-31T03:40:00;101946.09;;;9.43;100.0
22775;BME280;11554;51.106;3.684;2022-10-31T03:45:01;101938.25;;;9.54;100.0
22775;BME280;11554;51.106;3.684;2022-10-31T03:50:00;101933.29;;;9.54;100.0
22775;BME280;11554;51.106;3.684;2022-10-31T03:55:02;101934.79999999999;;;9.50;100.0
22775;BME280;11554;51.106;3.684;2022-10-31T04:00:01;101927.22;;;9.36;100.0
22775;BME280;11554;51.106;3.684;2022-10-31T04:05:00;101930.78;;;9.29;100.0
22775;BME280;11554;51.106;3.684;2022-10-31T04:10:00;101923.64;;;9.17;100.0
22775;BME280;11554;51.106;3.684;2022-10-31T04:15:00;101924.87999999999;;;9.09;100.0
22775;BME280;11554;51.106;3.684;2022-10-31T04:20:00;101925.09;;;8.97;100.0
22775;BME280;11554;51.106;3.684;2022-10-31T04:25:00;101919.59000000001;;;9.01;100.0
22775;BME280;11554;51.106;3.684;2022-10-31T04:30:00;101912.36;;;9.06;100.0
22775;BME280;11554;51.106;3.684;2022-10-31T04:35:00;101913.73;;;8.85;100.0
22775;BME280;11554;51.106;3.684;2022-10-31T04:40:00;101917.97;;;8.78;100.0
22775;BME280;11554;51.106;3.684;2022-10-31T04:45:00;101919.93;;;8.69;100.0
22775;BME280;11554;51.106;3.684;2022-10-31T04:50:00;101909.41;;;8.63;100.0
22775;BME280;11554;51.106;3.684;2022-10-31T04:55:00;101906.06;;;8.71;100.0
22775;BME280;11554;51.106;3.684;2022-10-31T05:00:00;101903.8;;;8.58;100.0
22775;BME280;11554;51.106;3.684;2022-10-31T05:05:00;101911.47;;;8.36;100.0
22775;BME280;11554;51.106;3.684;2022-10-31T05:10:00;101906.70999999999;;;8.23;100.0
22775;BME280;11554;51.106;3.684;2022-10-31T05:15:00;101913.42;;;8.13;100.0
22775;BME280;11554;51.106;3.684;2022-10-31T05:20:00;101908.39;;;8.26;100.0
22775;BME280;11554;51.106;3.684;2022-10-31T05:25:00;101904.22;;;8.33;100.0
22775;BME280;11554;51.106;3.684;2022-10-31T05:30:00;101897.29999999999;;;8.27;100.0
22775;BME280;11554;51.106;3.684;2022-10-31T05:35:00;101892.71;;;8.32;100.0
22775;BME280;11554;51.106;3.684;2022-10-31T05:40:00;101893.91;;;8.26;100.0
22775;BME280;11554;51.106;3.684;2022-10-31T05:45:00;101894.82;;;8.27;100.0
22775;BME280;11554;51.106;3.684;2022-10-31T05:50:00;101887.61;;;8.09;100.0
22775;BME280;11554;51.106;3.684;2022-10-31T05:55:00;101882.06999999999;;;8.00;100.0
22775;BME280;11554;51.106;3.684;2022-10-31T06:00:00;101882.56;;;7.84;100.0
22775;BME280;11554;51.106;3.684;2022-10-31T06:05:00;101885.38;;;7.70;100.0
22775;BME280;11554;51.106;3.684;2022-10-31T06:10:00;101883.14;;;7.85;100.0
22775;BME280;11554;51.106;3.684;2022-10-31T06:15:00;101878.05;;;8.08;100.0
22775;BME280;11554;51.106;3.684;2022-10-31T06:20:00;101878.83;;;8.05;100.0
22775;BME280;11554;51.106;3.684;2022-10-31T06:25:00;101886.36;;;8.27;100.0
22775;BME280;11554;51.106;3.684;2022-10-31T06:30:00;101871.31000000001;;;8.43;100.0
22775;BME280;11554;51.106;3.684;2022-10-31T06:35:00;101878.19;;;8.62;100.0
22775;BME280;11554;51.106;3.684;2022-10-31T06:40:00;101883.67;;;8.86;100.0
22775;BME280;11554;51.106;3.684;2022-10-31T06:45:00;101881.87000000001;;;9.04;100.0
22775;BME280;11554;51.106;3.684;2022-10-31T06:50:00;101882.15;;;9.07;100.0
22775;BME280;11554;51.106;3.684;2022-10-31T06:55:00;101873.24;;;9.10;100.0
22775;BME280;11554;51.106;3.684;2022-10-31T07:00:00;101874.15999999999;;;9.12;100.0
22775;BME280;11554;51.106;3.684;2022-10-31T07:05:00;101881.47;;;9.17;100.0
22775;BME280;11554;51.106;3.684;2022-10-31T07:10:00;101889.68;;;9.32;100.0
22775;BME280;11554;51.106;3.684;2022-10-31T07:15:00;101886.13;;;9.45;100.0
22775;BME280;11554;51.106;3.684;2022-10-31T07:20:00;101889.57;;;9.64;100.0
22775;BME280;11554;51.106;3.684;2022-10-31T07:25:00;101881.78;;;9.77;100.0
22775;BME280;11554;51.106;3.684;2022-10-31T07:30:00;101887.22;;;9.94;100.0
22775;BME280;11554;51.106;3.684;2022-10-31T07:35:00;101889.87;;;10.10;100.0
22775;BME280;11554;51.106;3.684;2022-10-31T07:40:00;101886.83;;;10.23;100.0
22775;BME280;11554;51.106;3.684;2022-10-31T07:45:00;101883.58;;;10.29;100.0
22775;BME280;11554;51.106;3.684;2022-10-31T07:50:00;101883.93;;;10.39;100.0
22775;BME280;11554;51.106;3.684;2022-10-31T07:55:00;101888.29;;;10.53;100.0
22775;BME280;11554;51.106;3.684;2022-10-31T08:00:00;101889.45;;;10.57;100.0
22775;BME280;11554;51.106;3.684;2022-10-31T08:05:00;101885.26000000001;;;10.59;100.0
22775;BME280;11554;51.106;3.684;2022-10-31T08:10:00;101876.22;;;10.56;100.0
22775;BME280;11554;51.106;3.684;2022-10-31T08:15:00;101877.14;;;10.56;100.0
22775;BME280;11554;51.106;3.684;2022-10-31T08:20:00;101864.36;;;10.69;100.0
22775;BME280;11554;51.106;3.684;2022-10-31T08:25:00;101860.85;;;10.88;100.0
22775;BME280;11554;51.106;3.684;2022-10-31T08:30:00;101855.83;;;10.95;100.0
22775;BME280;11554;51.106;3.684;2022-10-31T08:35:00;101838.83;;;11.04;100.0
22775;BME280;11554;51.106;3.684;2022-10-31T08:40:00;101829.03;;;11.24;100.0
22775;BME280;11554;51.106;3.684;2022-10-31T08:45:00;101823.42;;;11.33;100.0
22775;BME280;11554;51.106;3.684;2022-10-31T08:50:00;101826.11;;;11.49;100.0
22775;BME280;11554;51.106;3.684;2022-10-31T08:55:00;101820.15;;;11.64;100.0
22775;BME280;11554;51.106;3.684;2022-10-31T09:00:00;101822.52;;;11.74;100.0
22775;BME280;11554;51.106;3.684;2022-10-31T09:05:00;101824.15999999999;;;11.94;100.0
22775;BME280;11554;51.106;3.684;2022-10-31T09:10:00;101818.87000000001;;;12.24;100.0
22775;BME280;11554;51.106;3.684;2022-10-31T09:15:00;101795.31;;;12.34;100.0
22775;BME280;11554;51.106;3.684;2022-10-31T09:20:00;101786.37999999999;;;12.41;100.0
22775;BME280;11554;51.106;3.684;2022-10-31T09:25:00;101778.03;;;12.47;100.0
22775;BME280;11554;51.106;3.684;2022-10-31T09:30:00;101780.11;;;12.51;100.0
22775;BME280;11554;51.106;3.684;2022-10-31T09:35:00;101782.5;;;12.53;100.0
22775;BME280;11554;51.106;3.684;2022-10-31T09:40:00;101783.47;;;12.67;100.0
22775;BME280;11554;51.106;3.684;2022-10-31T09:45:02;101778.63;;;12.80;100.0
22775;BME280;11554;51.106;3.684;2022-10-31T09:50:06;101777.06;;;12.95;100.0
22775;BME280;11554;51.106;3.684;2022-10-31T09:55:02;101767.79000000001;;;13.08;100.0
22775;BME280;11554;51.106;3.684;2022-10-31T10:00:00;101768.58;;;13.13;100.0
22775;BME280;11554;51.106;3.684;2022-10-31T10:05:00;101752.55;;;13.32;100.0
22775;BME280;11554;51.106;3.684;2022-10-31T10:10:00;101750.86;;;13.52;100.0
22775;BME280;11554;51.106;3.684;2022-10-31T10:15:04;101739.15;;;13.69;100.0
22775;BME280;11554;51.106;3.684;2022-10-31T10:20:04;101728.76;;;14.07;100.0
22775;BME280;11554;51.106;3.684;2022-10-31T10:25:02;101717.97;;;14.47;100.0
22775;BME280;11554;51.106;3.684;2022-10-31T10:30:01;101705.55;;;14.35;100.0
22775;BME280;11554;51.106;3.684;2022-10-31T10:35:01;101711.22;;;14.54;100.0
22775;BME280;11554;51.106;3.684;2022-10-31T10:40:01;101707.47;;;15.05;100.0
22775;BME280;11554;51.106;3.684;2022-10-31T10:45:00;101692.6;;;15.75;100.0
22775;BME280;11554;51.106;3.684;2022-10-31T10:50:00;101685.47;;;15.91;100.0
22775;BME280;11554;51.106;3.684;2022-10-31T10:55:02;101668.08;;;15.84;100.0
22775;BME280;11554;51.106;3.684;2022-10-31T11:00:00;101652.98;;;15.81;100.0
22775;BME280;11554;51.106;3.684;2022-10-31T11:05:00;101644.12;;;15.58;100.0
22775;BME280;11554;51.106;3.684;2022-10-31T11:10:03;101633.23000000001;;;15.52;100.0
22775;BME280;11554;51.106;3.684;2022-10-31T11:15:02;101616.65000000001;;;15.44;100.0
22775;BME280;11554;51.106;3.684;2022-10-31T11:20:00;101599.06999999999;;;15.35;100.0
22775;BME280;11554;51.106;3.684;2022-10-31T11:25:00;101584.99;;;15.37;100.0
22775;BME280;11554;51.106;3.684;2022-10-31T11:30:04;101578.36;;;15.45;100.0
22775;BME280;11554;51.106;3.684;2022-10-31T11:35:00;101575.97;;;15.67;100.0
22775;BME280;11554;51.106;3.684;2022-10-31T11:40:00;101567.86;;;15.69;100.0
22775;BME280;11554;51.106;3.684;2022-10-31T11:45:00;101554.67;;;15.75;100.0
22775;BME280;11554;51.106;3.684;2022-10-31T11:50:00;101538.95;;;15.77;100.0
22775;BME280;11554;51.106;3.684;2022-10-31T11:55:00;101529.0;;;16.09;100.0
22775;BME280;11554;51.106;3.684;2022-10-31T12:00:01;101525.67;;;16.30;100.0
22775;BME280;11554;51.106;3.684;2022-10-31T12:05:02;101509.23;;;16.48;100.0
22775;BME280;11554;51.106;3.684;2022-10-31T12:10:00;101499.15999999999;;;16.38;100.0
22775;BME280;11554;51.106;3.684;2022-10-31T12:15:04;101480.04;;;16.27;100.0
22775;BME280;11554;51.106;3.684;2022-10-31T12:20:02;101464.92;;;16.23;100.0
22775;BME280;11554;51.106;3.684;2022-10-31T12:25:03;101451.73;;;16.22;100.0
22775;BME280;11554;51.106;3.684;2022-10-31T12:30:03;101450.09;;;16.29;100.0
22775;BME280;11554;51.106;3.684;2022-10-31T12:35:05;101441.2;;;16.29;100.0
22775;BME280;11554;51.106;3.684;2022-10-31T12:40:03;101436.37999999999;;;16.32;100.0
22775;BME280;11554;51.106;3.684;2022-10-31T12:45:04;101428.77;;;16.33;100.0
22775;BME280;11554;51.106;3.684;2022-10-31T12:50:02;101416.6;;;16.40;100.0
22775;BME280;11554;51.106;3.684;2022-10-31T12:55:05;101411.69;;;16.47;100.0
22775;BME280;11554;51.106;3.684;2022-10-31T13:00:00;101402.45;;;16.27;100.0
22775;BME280;11554;51.106;3.684;2022-10-31T13:05:01;101385.69;;;16.08;100.0
22775;BME280;11554;51.106;3.684;2022-10-31T13:10:00;101384.78;;;15.99;100.0
22775;BME280;11554;51.106;3.684;2022-10-31T13:15:01;101372.74;;;16.01;100.0
22775;BME280;11554;51.106;3.684;2022-10-31T13:20:05;101356.67;;;16.09;100.0
22775;BME280;11554;51.106;3.684;2022-10-31T13:25:02;101335.77;;;16.16;100.0
22775;BME280;11554;51.106;3.684;2022-10-31T13:30:01;101310.86;;;16.32;100.0
22775;BME280;11554;51.106;3.684;2022-10-31T13:35:00;101293.02;;;16.70;100.0
22775;BME280;11554;51.106;3.684;2022-10-31T13:40:05;101279.35;;;16.79;100.0
22775;BME280;11554;51.106;3.684;2022-10-31T13:45:06;101268.57;;;16.68;100.0
22775;BME280;11554;51.106;3.684;2022-10-31T13:50:04;101257.65;;;16.88;100.0
22775;BME280;11554;51.106;3.684;2022-10-31T13:55:00;101244.92;;;16.97;100.0
22775;BME280;11554;51.106;3.684;2022-10-31T14:00:01;101230.45;;;17.04;100.0
22775;BME280;11554;51.106;3.684;2022-10-31T14:05:00;101211.3;;;17.23;100.0
22775;BME280;11554;51.106;3.684;2022-10-31T14:10:01;101213.73;;;17.21;100.0
22775;BME280;11554;51.106;3.684;2022-10-31T14:15:02;101213.64;;;17.09;100.0
22775;BME280;11554;51.106;3.684;2022-10-31T14:25:00;101212.11;;;16.50;100.0
22775;BME280;11554;51.106;3.684;2022-10-31T14:30:07;101196.47;;;16.47;100.0
22775;BME280;11554;51.106;3.684;2022-10-31T14:35:00;101183.59;;;16.44;100.0
22775;BME280;11554;51.106;3.684;2022-10-31T14:40:03;101169.58;;;16.44;100.0
22775;BME280;11554;51.106;3.684;2022-10-31T14:50:09;101149.81;;;16.33;100.0
22775;BME280;11554;51.106;3.684;2022-10-31T14:55:00;101152.55;;;16.46;100.0
22775;BME280;11554;51.106;3.684;2022-10-31T15:00:01;101143.26999999999;;;16.58;100.0
22775;BME280;11554;51.106;3.684;2022-10-31T15:05:00;101135.99;;;16.59;100.0
22775;BME280;11554;51.106;3.684;2022-10-31T15:10:00;101131.66;;;16.40;100.0
22775;BME280;11554;51.106;3.684;2022-10-31T15:15:10;101109.56;;;16.18;100.0
22775;BME280;11554;51.106;3.684;2022-10-31T15:20:00;101107.15;;;16.04;100.0
22775;BME280;11554;51.106;3.684;2022-10-31T15:25:00;101115.34;;;15.94;100.0
22775;BME280;11554;51.106;3.684;2022-10-31T15:30:00;101111.84;;;15.92;100.0
22775;BME280;11554;51.106;3.684;2022-10-31T15:35:00;101100.53;;;15.94;100.0
22775;BME280;11554;51.106;3.684;2022-10-31T15:40:06;101095.5;;;15.95;100.0
22775;BME280;11554;51.106;3.684;2022-10-31T15:45:00;101088.97;;;15.92;100.0
22775;BME280;11554;51.106;3.684;2022-10-31T15:50:00;101086.01;;;15.81;100.0
22775;BME280;11554;51.106;3.684;2022-10-31T15:55:00;101059.48;;;15.72;100.0
22775;BME280;11554;51.106;3.684;2022-10-31T16:00:00;101058.29;;;15.65;100.0
22775;BME280;11554;51.106;3.684;2022-10-31T16:05:00;101056.33;;;15.61;100.0
22775;BME280;11554;51.106;3.684;2022-10-31T16:10:00;101050.37;;;15.59;100.0
22775;BME280;11554;51.106;3.684;2022-10-31T16:15:00;101047.34;;;15.56;100.0
22775;BME280;11554;51.106;3.684;2022-10-31T16:20:00;101037.58;;;15.47;100.0
22775;BME280;11554;51.106;3.684;2022-10-31T16:25:01;101048.67;;;15.40;100.0
22775;BME280;11554;51.106;3.684;2022-10-31T16:30:00;101031.47;;;15.30;100.0
22775;BME280;11554;51.106;3.684;2022-10-31T16:35:01;101027.98;;;15.23;100.0
22775;BME280;11554;51.106;3.684;2022-10-31T16:40:00;101029.88;;;15.15;100.0
22775;BME280;11554;51.106;3.684;2022-10-31T16:45:00;101020.43;;;14.96;100.0
22775;BME280;11554;51.106;3.684;2022-10-31T16:50:00;101008.69;;;14.85;100.0
22775;BME280;11554;51.106;3.684;2022-10-31T16:55:00;100999.73;;;14.88;100.0
22775;BME280;11554;51.106;3.684;2022-10-31T17:00:00;100990.23;;;14.79;100.0
22775;BME280;11554;51.106;3.684;2022-10-31T17:05:00;100994.43;;;14.68;100.0
22775;BME280;11554;51.106;3.684;2022-10-31T17:10:00;100994.59000000001;;;14.45;100.0
22775;BME280;11554;51.106;3.684;2022-10-31T17:15:00;100995.87;;;14.25;100.0
22775;BME280;11554;51.106;3.684;2022-10-31T17:20:00;100994.06;;;14.13;100.0
22775;BME280;11554;51.106;3.684;2022-10-31T17:25:00;100985.35;;;14.14;100.0
22775;BME280;11554;51.106;3.684;2022-10-31T17:30:00;100984.84999999999;;;14.08;100.0
22775;BME280;11554;51.106;3.684;2022-10-31T17:35:00;100978.21;;;14.10;100.0
22775;BME280;11554;51.106;3.684;2022-10-31T17:40:00;100980.73000000001;;;14.18;100.0
22775;BME280;11554;51.106;3.684;2022-10-31T17:45:00;100978.74;;;14.16;100.0
22775;BME280;11554;51.106;3.684;2022-10-31T17:50:00;100976.86;;;14.20;100.0
22775;BME280;11554;51.106;3.684;2022-10-31T17:55:00;100970.7;;;14.18;100.0
22775;BME280;11554;51.106;3.684;2022-10-31T18:00:00;100966.02;;;14.15;100.0
22775;BME280;11554;51.106;3.684;2022-10-31T18:05:00;100961.44;;;14.15;100.0
22775;BME280;11554;51.106;3.684;2022-10-31T18:10:00;100955.76999999999;;;14.20;100.0
22775;BME280;11554;51.106;3.684;2022-10-31T18:15:00;100956.58;;;14.23;100.0
22775;BME280;11554;51.106;3.684;2022-10-31T18:20:00;100951.09;;;14.19;100.0
22775;BME280;11554;51.106;3.684;2022-10-31T18:25:00;100953.37;;;14.24;100.0
22775;BME280;11554;51.106;3.684;2022-10-31T18:30:00;100948.19;;;14.11;100.0
22775;BME280;11554;51.106;3.684;2022-10-31T18:35:00;100937.78;;;14.02;100.0
22775;BME280;11554;51.106;3.684;2022-10-31T18:40:00;100933.03;;;14.06;100.0
22775;BME280;11554;51.106;3.684;2022-10-31T18:45:00;100920.53;;;14.14;100.0
22775;BME280;11554;51.106;3.684;2022-10-31T18:50:00;100914.98;;;14.17;100.0
22775;BME280;11554;51.106;3.684;2022-10-31T18:55:00;100911.92;;;14.23;100.0
22775;BME280;11554;51.106;3.684;2022-10-31T19:00:00;100907.84999999999;;;14.32;100.0
22775;BME280;11554;51.106;3.684;2022-10-31T19:05:00;100900.64;;;14.35;100.0
22775;BME280;11554;51.106;3.684;2022-10-31T19:10:00;100899.43;;;14.42;100.0
22775;BME280;11554;51.106;3.684;2022-10-31T19:15:00;100897.28;;;14.40;100.0
22775;BME280;11554;51.106;3.684;2022-10-31T19:20:00;100890.01;;;14.48;100.0
22775;BME280;11554;51.106;3.684;2022-10-31T19:25:00;100879.39;;;14.44;100.0
22775;BME280;11554;51.106;3.684;2022-10-31T19:30:00;100871.93;;;14.46;100.0
22775;BME280;11554;51.106;3.684;2022-10-31T19:35:00;100863.28;;;14.51;100.0
22775;BME280;11554;51.106;3.684;2022-10-31T19:40:00;100851.29;;;14.58;100.0
22775;BME280;11554;51.106;3.684;2022-10-31T19:45:00;100847.69;;;14.67;100.0
22775;BME280;11554;51.106;3.684;2022-10-31T19:50:00;100839.09;;;14.78;100.0
22775;BME280;11554;51.106;3.684;2022-10-31T19:55:00;100835.74;;;14.80;100.0
22775;BME280;11554;51.106;3.684;2022-10-31T20:00:00;100842.78;;;14.78;100.0
22775;BME280;11554;51.106;3.684;2022-10-31T20:05:00;100839.11;;;14.81;100.0
22775;BME280;11554;51.106;3.684;2022-10-31T20:10:00;100838.26000000001;;;14.92;100.0
22775;BME280;11554;51.106;3.684;2022-10-31T20:15:00;100837.23;;;15.01;100.0
22775;BME280;11554;51.106;3.684;2022-10-31T20:20:00;100833.95000000001;;;15.07;100.0
22775;BME280;11554;51.106;3.684;2022-10-31T20:25:00;100841.76999999999;;;15.18;100.0
22775;BME280;11554;51.106;3.684;2022-10-31T20:30:00;100823.41;;;15.19;100.0
22775;BME280;11554;51.106;3.684;2022-10-31T20:35:00;100815.31;;;15.12;100.0
22775;BME280;11554;51.106;3.684;2022-10-31T20:40:00;100806.98;;;15.06;100.0
22775;BME280;11554;51.106;3.684;2022-10-31T20:45:00;100796.25;;;15.03;100.0
22775;BME280;11554;51.106;3.684;2022-10-31T20:50:00;100783.09000000001;;;15.03;100.0
22775;BME280;11554;51.106;3.684;2022-10-31T20:55:00;100777.5;;;15.05;100.0
22775;BME280;11554;51.106;3.684;2022-10-31T21:00:00;100774.18000000001;;;15.07;100.0
22775;BME280;11554;51.106;3.684;2022-10-31T21:05:00;100767.5;;;15.11;100.0
22775;BME280;11554;51.106;3.684;2022-10-31T21:10:00;100764.95;;;15.14;100.0
22775;BME280;11554;51.106;3.684;2022-10-31T21:15:00;100760.31;;;15.14;100.0
22775;BME280;11554;51.106;3.684;2022-10-31T21:20:00;100754.08;;;15.15;100.0
22775;BME280;11554;51.106;3.684;2022-10-31T21:25:00;100745.76;;;15.22;100.0
22775;BME280;11554;51.106;3.684;2022-10-31T21:30:00;100739.5;;;15.24;100.0
22775;BME280;11554;51.106;3.684;2022-10-31T21:35:00;100740.03;;;15.20;100.0
22775;BME280;11554;51.106;3.684;2022-10-31T21:40:00;100738.64;;;15.16;100.0
22775;BME280;11554;51.106;3.684;2022-10-31T21:45:00;100734.59;;;15.14;100.0
22775;BME280;11554;51.106;3.684;2022-10-31T21:50:00;100726.11;;;15.17;100.0
22775;BME280;11554;51.106;3.684;2022-10-31T21:55:00;100723.46;;;15.28;100.0
22775;BME280;11554;51.106;3.684;2022-10-31T22:00:00;100736.64;;;15.30;100.0
22775;BME280;11554;51.106;3.684;2022-10-31T22:05:00;100722.49;;;15.38;100.0
22775;BME280;11554;51.106;3.684;2022-10-31T22:10:00;100714.98;;;15.48;100.0
22775;BME280;11554;51.106;3.684;2022-10-31T22:15:00;100701.29;;;15.44;100.0
22775;BME280;11554;51.106;3.684;2022-10-31T22:20:00;100690.09;;;15.44;100.0
22775;BME280;11554;51.106;3.684;2022-10-31T22:25:00;100676.5;;;15.39;100.0
22775;BME280;11554;51.106;3.684;2022-10-31T22:30:00;100662.21;;;15.38;100.0
22775;BME280;11554;51.106;3.684;2022-10-31T22:35:00;100659.2;;;15.39;100.0
22775;BME280;11554;51.106;3.684;2022-10-31T22:40:00;100666.89;;;15.38;100.0
22775;BME280;11554;51.106;3.684;2022-10-31T22:45:00;100661.94;;;15.38;100.0
22775;BME280;11554;51.106;3.684;2022-10-31T22:50:00;100646.36;;;15.39;100.0
22775;BME280;11554;51.106;3.684;2022-10-31T22:55:00;100640.55;;;15.41;100.0
22775;BME280;11554;51.106;3.684;2022-10-31T23:00:00;100644.81;;;15.44;100.0
22775;BME280;11554;51.106;3.684;2022-10-31T23:05:00;100634.25;;;15.45;100.0
22775;BME280;11554;51.106;3.684;2022-10-31T23:10:00;100636.81;;;15.48;100.0
22775;BME280;11554;51.106;3.684;2022-10-31T23:15:00;100624.1;;;15.47;100.0
22775;BME280;11554;51.106;3.684;2022-10-31T23:20:00;100622.88;;;15.40;100.0
22775;BME280;11554;51.106;3.684;2022-10-31T23:25:00;100616.06;;;15.40;100.0
22775;BME280;11554;51.106;3.684;2022-10-31T23:30:00;100610.61;;;15.47;100.0
22775;BME280;11554;51.106;3.684;2022-10-31T23:35:00;100608.06;;;15.46;100.0
22775;BME280;11554;51.106;3.684;2022-10-31T23:40:00;100618.84;;;15.44;100.0
22775;BME280;11554;51.106;3.684;2022-10-31T23:45:00;100622.38;;;15.50;100.0
22775;BME280;11554;51.106;3.684;2022-10-31T23:50:00;100630.94;;;15.48;100.0
22775;BME280;11554;51.106;3.684;2022-10-31T23:55:00;100615.72;;;15.57;100.0
